Time;durP1;ratioP1;P1;durP2;ratioP2;P2;SDS_P1;SDS_P2;PMS_P1;PMS_P2;Temp;Humidity;BMP_temperature;BMP_pressure;BME280_temperature;BME280_humidity;BME280_pressure;Samples;Min_cycle;Max_cycle;Signal;HPM_P1;HPM_P2
2022/03/26 00:01:54;;;;;;;41.55;18.98;;;;;;;8.45;72.34;103114.97;5013219;28;20484;-48
2022/03/26 00:04:20;;;;;;;40.75;19.00;;;;;;;8.38;71.49;103125.09;4998776;28;20064;-44
2022/03/26 00:06:45;;;;;;;41.53;18.48;;;;;;;8.31;71.46;103121.06;4993235;28;20555;-44
2022/03/26 00:09:10;;;;;;;47.20;19.90;;;;;;;8.29;71.60;103122.97;5009819;28;20120;-47
2022/03/26 00:11:36;;;;;;;43.90;18.58;;;;;;;8.26;71.91;103123.16;5001829;28;20021;-49
2022/03/26 00:14:01;;;;;;;46.10;19.60;;;;;;;8.19;72.87;103120.84;5005411;28;20064;-46
2022/03/26 00:16:26;;;;;;;46.42;19.88;;;;;;;8.08;72.76;103125.06;5013438;28;20029;-47
2022/03/26 00:18:52;;;;;;;40.17;19.55;;;;;;;8.01;73.67;103117.44;4996036;28;20116;-47
2022/03/26 00:21:17;;;;;;;43.28;19.15;;;;;;;7.97;73.55;103115.03;4993612;28;20029;-48
2022/03/26 00:23:43;;;;;;;46.30;19.20;;;;;;;7.95;73.81;103114.28;4996158;28;20492;-48
2022/03/26 00:26:10;;;;;;;48.83;19.80;;;;;;;7.83;74.49;103103.38;5012445;28;20029;-47
2022/03/26 00:28:37;;;;;;;43.85;19.77;;;;;;;7.65;75.62;103102.66;5012967;28;20025;-47
2022/03/26 00:31:03;;;;;;;46.42;19.25;;;;;;;7.56;75.83;103111.13;4999960;28;20414;-48
2022/03/26 00:33:29;;;;;;;42.45;20.38;;;;;;;7.46;77.22;103124.06;5010653;28;20028;-46
2022/03/26 00:35:56;;;;;;;46.35;20.55;;;;;;;7.41;77.55;103120.78;4993991;28;20052;-48
2022/03/26 00:38:21;;;;;;;45.90;20.70;;;;;;;7.42;78.17;103116.34;4993535;28;20022;-45
2022/03/26 00:40:47;;;;;;;45.90;20.33;;;;;;;7.39;77.64;103114.72;5004312;28;20041;-50
2022/03/26 00:43:12;;;;;;;48.22;20.83;;;;;;;7.41;77.91;103109.31;4995745;28;20099;-45
2022/03/26 00:45:37;;;;;;;47.45;20.33;;;;;;;7.40;77.90;103110.25;5002302;28;20350;-46
2022/03/26 00:48:04;;;;;;;47.22;21.55;;;;;;;7.39;78.26;103113.88;5012792;28;20472;-47
2022/03/26 00:50:30;;;;;;;48.25;21.08;;;;;;;7.38;78.08;103106.81;5012365;28;20061;-46
2022/03/26 00:52:55;;;;;;;47.50;20.65;;;;;;;7.39;78.29;103111.22;5013702;28;20060;-46
2022/03/26 00:55:21;;;;;;;50.72;21.23;;;;;;;7.32;77.92;103108.03;5007127;28;20574;-45
2022/03/26 00:57:47;;;;;;;49.63;21.50;;;;;;;7.37;78.90;103103.31;4992893;28;20037;-47
2022/03/26 01:00:13;;;;;;;50.63;20.33;;;;;;;7.28;77.70;103103.78;4992489;28;20055;-45
2022/03/26 01:02:38;;;;;;;49.22;20.15;;;;;;;7.26;78.72;103108.34;4990467;28;20037;-46
2022/03/26 01:05:04;;;;;;;51.28;20.77;;;;;;;7.21;79.18;103102.41;5002538;28;20022;-44
2022/03/26 01:07:30;;;;;;;47.38;20.17;;;;;;;7.16;79.61;103108.00;4994890;28;20397;-46
2022/03/26 01:09:56;;;;;;;47.80;20.23;;;;;;;7.13;79.87;103102.84;4993621;28;20535;-48
2022/03/26 01:12:22;;;;;;;47.67;20.60;;;;;;;7.11;80.71;103099.41;4994211;28;20034;-47
2022/03/26 01:14:48;;;;;;;49.17;20.42;;;;;;;7.06;80.66;103102.31;5014035;28;20058;-46
2022/03/26 01:17:14;;;;;;;48.53;20.73;;;;;;;7.03;80.32;103107.81;5011174;28;20032;-46
2022/03/26 01:19:39;;;;;;;45.03;20.42;;;;;;;6.92;80.74;103094.22;5015985;28;20026;-46
2022/03/26 01:22:05;;;;;;;40.70;20.88;;;;;;;6.90;80.51;103104.06;5013899;28;20281;-47
2022/03/26 01:24:30;;;;;;;48.78;20.90;;;;;;;6.82;81.48;103100.97;5010548;28;20706;-47
2022/03/26 01:26:57;;;;;;;51.97;19.90;;;;;;;6.80;81.99;103101.03;5011696;28;20038;-50
2022/03/26 01:29:22;;;;;;;52.08;20.85;;;;;;;6.76;81.67;103103.97;5016571;28;20029;-47
2022/03/26 01:31:47;;;;;;;45.38;21.20;;;;;;;6.65;81.42;103097.41;5015841;28;20029;-50
2022/03/26 01:34:12;;;;;;;44.90;19.60;;;;;;;6.59;81.95;103100.38;5015659;28;20029;-47
2022/03/26 01:36:38;;;;;;;44.35;20.00;;;;;;;6.54;82.20;103111.22;5002793;28;20073;-47
2022/03/26 01:39:03;;;;;;;51.47;20.42;;;;;;;6.50;82.99;103098.19;5010989;28;20375;-43
2022/03/26 01:41:28;;;;;;;44.47;21.55;;;;;;;6.48;83.07;103097.41;5013921;28;20328;-45
2022/03/26 01:43:54;;;;;;;47.70;19.83;;;;;;;6.50;82.93;103100.84;5016353;28;20283;-49
2022/03/26 01:46:20;;;;;;;48.13;20.17;;;;;;;6.53;83.32;103108.66;5009340;28;20063;-47
2022/03/26 01:48:47;;;;;;;53.33;20.23;;;;;;;6.50;82.28;103107.03;4997422;28;20037;-47
2022/03/26 01:51:15;;;;;;;50.35;20.38;;;;;;;6.56;83.72;103107.66;4996451;28;20473;-49
2022/03/26 01:53:47;;;;;;;45.55;19.77;;;;;;;6.51;83.20;103099.91;4996746;28;20034;-48
2022/03/26 01:56:14;;;;;;;50.85;20.55;;;;;;;6.51;83.25;103102.56;5004051;28;20103;-45
2022/03/26 01:58:40;;;;;;;46.25;20.20;;;;;;;6.48;84.16;103103.59;5013923;28;20387;-45
2022/03/26 02:01:06;;;;;;;46.65;20.25;;;;;;;6.46;84.72;103100.13;4995723;28;20456;-45
2022/03/26 02:03:31;;;;;;;46.55;19.75;;;;;;;6.46;84.53;103099.28;4995941;28;20048;-44
2022/03/26 02:05:57;;;;;;;49.22;19.52;;;;;;;6.45;84.45;103102.88;5008997;28;20030;-48
2022/03/26 02:08:22;;;;;;;46.67;20.75;;;;;;;6.42;83.34;103105.69;5016679;28;20083;-47
2022/03/26 02:10:47;;;;;;;42.05;19.70;;;;;;;6.40;84.11;103104.91;5004623;28;20076;-45
2022/03/26 02:13:13;;;;;;;51.20;19.42;;;;;;;6.38;84.77;103107.63;4995790;28;20055;-46
2022/03/26 02:15:38;;;;;;;43.55;20.20;;;;;;;6.33;84.93;103105.22;5007980;28;20029;-46
2022/03/26 02:18:06;;;;;;;50.38;20.20;;;;;;;6.25;84.57;103111.84;4998673;28;20045;-46
2022/03/26 02:20:31;;;;;;;52.42;19.92;;;;;;;6.23;84.61;103111.06;4999303;28;20029;-46
2022/03/26 02:22:57;;;;;;;50.38;20.63;;;;;;;6.24;85.93;103113.63;5015482;28;20071;-45
2022/03/26 02:25:22;;;;;;;40.10;19.77;;;;;;;6.22;85.25;103106.69;5015486;28;20037;-46
2022/03/26 02:27:47;;;;;;;44.47;19.20;;;;;;;6.22;85.19;103106.69;5014834;28;20813;-49
2022/03/26 02:30:13;;;;;;;44.10;20.00;;;;;;;6.20;86.02;103100.63;5003156;28;20037;-54
2022/03/26 02:32:38;;;;;;;50.50;19.63;;;;;;;6.20;86.35;103109.44;4995410;28;20033;-53
2022/03/26 02:35:04;;;;;;;52.80;20.05;;;;;;;6.16;86.36;103106.06;5010835;28;20022;-50
2022/03/26 02:37:31;;;;;;;49.75;20.25;;;;;;;6.18;86.59;103100.69;4997009;28;20060;-52
2022/03/26 02:39:58;;;;;;;47.70;20.02;;;;;;;6.16;86.02;103103.41;5015230;28;20040;-51
2022/03/26 02:42:23;;;;;;;48.42;19.63;;;;;;;6.15;86.04;103100.84;5014610;28;20033;-52
2022/03/26 02:44:50;;;;;;;57.50;19.60;;;;;;;6.15;86.28;103103.50;5014424;28;20028;-53
2022/03/26 02:47:15;;;;;;;39.92;19.40;;;;;;;6.16;86.72;103107.84;5001333;28;20025;-54
2022/03/26 02:49:41;;;;;;;41.80;19.27;;;;;;;6.13;86.17;103105.38;4999298;28;20038;-53
2022/03/26 02:52:06;;;;;;;50.30;18.77;;;;;;;6.10;86.23;103109.03;5011366;28;20030;-52
2022/03/26 02:54:31;;;;;;;45.53;19.70;;;;;;;6.07;86.71;103108.31;5020533;28;20048;-53
2022/03/26 02:56:57;;;;;;;46.72;20.58;;;;;;;6.03;86.85;103107.63;4997888;28;20112;-54
2022/03/26 02:59:23;;;;;;;48.88;19.98;;;;;;;6.00;87.21;103102.44;5008248;28;20053;-52
2022/03/26 03:01:50;;;;;;;45.60;19.65;;;;;;;5.95;87.28;103101.78;5013106;28;20500;-53
2022/03/26 03:04:16;;;;;;;45.88;19.88;;;;;;;5.88;87.23;103108.31;5008223;28;20034;-52
2022/03/26 03:06:41;;;;;;;42.08;18.95;;;;;;;5.86;88.77;103099.59;4995126;28;20045;-53
2022/03/26 03:09:07;;;;;;;55.65;20.05;;;;;;;5.83;88.16;103100.59;4995532;28;20056;-52
2022/03/26 03:11:35;;;;;;;50.50;20.05;;;;;;;5.81;88.41;103097.16;5000482;28;20045;-52
2022/03/26 03:14:02;;;;;;;44.53;19.13;;;;;;;5.77;88.90;103100.88;4995357;28;20276;-52
2022/03/26 03:16:27;;;;;;;38.35;18.15;;;;;;;5.74;88.77;103101.03;5011730;28;20037;-54
2022/03/26 03:18:53;;;;;;;48.92;20.25;;;;;;;5.67;88.61;103105.78;5010842;28;20049;-53
2022/03/26 03:21:18;;;;;;;48.75;20.65;;;;;;;5.61;89.92;103103.41;5005606;28;20605;-54
2022/03/26 03:23:44;;;;;;;46.00;20.08;;;;;;;5.56;90.30;103106.28;5013500;28;20053;-53
2022/03/26 03:26:10;;;;;;;53.28;20.50;;;;;;;5.53;90.38;103103.78;5008029;28;20254;-53
2022/03/26 03:28:36;;;;;;;45.97;19.38;;;;;;;5.48;90.74;103105.81;4994533;28;20025;-54
2022/03/26 03:31:01;;;;;;;46.75;20.17;;;;;;;5.49;91.05;103111.94;4993234;28;20515;-53
2022/03/26 03:33:27;;;;;;;44.97;19.73;;;;;;;5.46;90.58;103118.25;4994732;28;20100;-53
2022/03/26 03:35:53;;;;;;;57.80;20.02;;;;;;;5.43;91.11;103113.06;4993843;28;20057;-52
2022/03/26 03:38:18;;;;;;;53.47;19.55;;;;;;;5.42;91.74;103117.53;4994241;28;20054;-52
2022/03/26 03:40:43;;;;;;;52.13;20.80;;;;;;;5.42;90.72;103114.03;4996407;28;20088;-53
2022/03/26 03:43:09;;;;;;;45.20;20.65;;;;;;;5.37;91.41;103108.09;5008916;28;20729;-52
2022/03/26 03:45:34;;;;;;;49.95;19.50;;;;;;;5.35;91.48;103112.59;5003979;28;20029;-53
2022/03/26 03:47:59;;;;;;;54.33;20.50;;;;;;;5.36;92.37;103106.34;4994145;28;20040;-54
2022/03/26 03:50:25;;;;;;;44.67;19.85;;;;;;;5.31;92.40;103117.19;5001122;28;20111;-53
2022/03/26 03:52:51;;;;;;;46.40;20.67;;;;;;;5.30;93.79;103114.59;5014285;28;20053;-55
2022/03/26 03:55:16;;;;;;;49.22;20.27;;;;;;;5.26;93.38;103113.00;5002231;28;20298;-52
2022/03/26 03:57:42;;;;;;;51.95;19.63;;;;;;;5.23;93.92;103119.31;5007968;28;20026;-53
2022/03/26 04:00:09;;;;;;;48.22;20.00;;;;;;;5.21;94.01;103114.09;5013074;28;20112;-53
2022/03/26 04:02:34;;;;;;;50.30;20.60;;;;;;;5.26;94.16;103113.00;5012551;28;20466;-52
2022/03/26 04:05:00;;;;;;;50.97;20.25;;;;;;;5.22;93.37;103113.13;5006665;28;20042;-54
2022/03/26 04:07:25;;;;;;;48.78;20.50;;;;;;;5.23;93.79;103114.03;4994955;28;20026;-52
2022/03/26 04:09:50;;;;;;;49.50;20.92;;;;;;;5.22;93.82;103110.50;4993943;28;20455;-52
2022/03/26 04:12:15;;;;;;;45.75;19.55;;;;;;;5.22;93.60;103112.28;5010094;28;20039;-53
2022/03/26 04:14:43;;;;;;;47.28;19.90;;;;;;;5.18;93.70;103108.06;4997765;28;20045;-52
2022/03/26 04:17:09;;;;;;;54.17;19.80;;;;;;;5.18;93.61;103108.06;4993770;28;20516;-52
2022/03/26 04:19:34;;;;;;;45.67;19.83;;;;;;;5.16;93.83;103116.09;5008594;28;20036;-53
2022/03/26 04:22:00;;;;;;;50.67;20.70;;;;;;;5.14;93.55;103112.66;5003471;28;20440;-54
2022/03/26 04:24:25;;;;;;;49.03;19.50;;;;;;;5.13;92.89;103118.03;5002260;28;20040;-53
2022/03/26 04:26:51;;;;;;;43.67;20.10;;;;;;;5.05;93.25;103126.28;5009562;28;20021;-55
2022/03/26 04:29:17;;;;;;;45.05;19.48;;;;;;;4.92;93.09;103118.06;5013358;28;20492;-54
2022/03/26 04:31:42;;;;;;;52.45;20.40;;;;;;;4.79;93.76;103117.72;5009331;28;20059;-54
2022/03/26 04:34:07;;;;;;;53.47;20.52;;;;;;;4.64;95.11;103121.03;4993692;28;20022;-55
2022/03/26 04:36:33;;;;;;;51.28;21.05;;;;;;;4.51;96.29;103117.19;5000092;28;20042;-54
2022/03/26 04:38:59;;;;;;;48.78;21.10;;;;;;;4.48;96.96;103118.16;5013443;28;20059;-54
2022/03/26 04:41:25;;;;;;;47.55;19.30;;;;;;;4.46;98.14;103110.31;5012647;28;20124;-53
2022/03/26 04:43:50;;;;;;;50.67;19.67;;;;;;;4.56;98.00;103120.50;5012246;28;20022;-53
2022/03/26 04:46:15;;;;;;;53.67;20.58;;;;;;;4.58;97.47;103113.34;5004633;28;20045;-54
2022/03/26 04:48:41;;;;;;;48.33;21.08;;;;;;;4.57;96.83;103115.16;4994258;28;20022;-54
2022/03/26 04:51:07;;;;;;;47.97;20.75;;;;;;;4.56;96.63;103115.22;4993290;28;20129;-54
2022/03/26 04:53:32;;;;;;;49.40;19.67;;;;;;;4.51;97.16;103115.41;4994647;28;20036;-54
2022/03/26 04:55:57;;;;;;;51.67;20.13;;;;;;;4.51;97.01;103123.34;5008011;28;20034;-54
2022/03/26 04:58:22;;;;;;;48.97;20.23;;;;;;;4.49;98.03;103117.25;4994103;28;20446;-54
2022/03/26 05:00:48;;;;;;;48.55;19.70;;;;;;;4.46;97.39;103118.25;4994519;28;20047;-53
2022/03/26 05:03:13;;;;;;;43.08;20.63;;;;;;;4.47;98.40;103117.31;5011591;28;20070;-53
2022/03/26 05:05:38;;;;;;;46.05;19.80;;;;;;;4.45;98.20;103118.31;5012190;28;20032;-53
2022/03/26 05:08:04;;;;;;;46.35;20.88;;;;;;;4.46;98.22;103120.91;5013012;28;20095;-53
2022/03/26 05:10:29;;;;;;;57.17;21.02;;;;;;;4.47;98.73;103119.13;5010291;28;20266;-53
2022/03/26 05:12:56;;;;;;;46.45;19.85;;;;;;;4.44;97.94;103124.53;5013739;28;20025;-52
2022/03/26 05:15:23;;;;;;;51.50;20.30;;;;;;;4.42;98.54;103124.59;5000950;28;20294;-53
2022/03/26 05:17:50;;;;;;;45.83;19.80;;;;;;;4.43;99.22;103118.38;5006874;28;20037;-52
2022/03/26 05:20:16;;;;;;;48.05;20.42;;;;;;;4.39;98.27;103130.00;5005375;28;20061;-52
2022/03/26 05:22:42;;;;;;;44.47;19.33;;;;;;;4.39;99.87;103118.56;4991888;28;20038;-54
2022/03/26 05:25:08;;;;;;;51.80;20.27;;;;;;;4.43;100.00;103131.63;4993225;28;20092;-54
2022/03/26 05:27:34;;;;;;;50.08;21.02;;;;;;;4.41;99.59;103135.25;5006274;28;20041;-52
2022/03/26 05:29:59;;;;;;;47.65;21.30;;;;;;;4.37;99.91;103139.81;5012312;28;20018;-50
2022/03/26 05:32:25;;;;;;;55.60;22.65;;;;;;;4.38;100.00;103144.19;5007423;28;20033;-53
2022/03/26 05:34:50;;;;;;;59.65;21.50;;;;;;;4.37;100.00;103142.44;4992419;28;20392;-53
2022/03/26 05:37:16;;;;;;;53.67;21.15;;;;;;;4.40;100.00;103147.63;5006638;28;20103;-52
2022/03/26 05:39:42;;;;;;;59.38;22.17;;;;;;;4.44;100.00;103145.69;5012760;28;20032;-53
2022/03/26 05:42:07;;;;;;;60.60;22.42;;;;;;;4.44;100.00;103141.25;5010523;28;20034;-53
2022/03/26 05:44:33;;;;;;;61.30;22.52;;;;;;;4.50;100.00;103148.09;4992487;28;20261;-53
2022/03/26 05:46:58;;;;;;;56.60;22.52;;;;;;;4.53;100.00;103153.28;4992078;28;20025;-52
2022/03/26 05:49:24;;;;;;;59.05;22.80;;;;;;;4.58;100.00;103146.00;4994803;28;20025;-53
2022/03/26 05:51:49;;;;;;;56.17;23.05;;;;;;;4.60;100.00;103140.59;5000515;28;20025;-53
2022/03/26 05:54:15;;;;;;;58.08;21.77;;;;;;;4.61;100.00;103145.84;5006836;28;20029;-54
2022/03/26 05:56:40;;;;;;;61.42;22.52;;;;;;;4.66;100.00;103146.50;5011731;28;20052;-54
2022/03/26 05:59:09;;;;;;;54.30;22.05;;;;;;;4.70;100.00;103151.66;5001083;28;20349;-54
2022/03/26 06:01:35;;;;;;;55.95;21.65;;;;;;;4.69;99.60;103149.97;5011432;28;20108;-52
2022/03/26 06:04:01;;;;;;;52.42;22.45;;;;;;;4.73;99.97;103154.19;5013462;28;20079;-52
2022/03/26 06:06:26;;;;;;;50.90;22.10;;;;;;;4.77;100.00;103156.66;5016108;28;20325;-52
2022/03/26 06:08:51;;;;;;;56.03;22.67;;;;;;;4.87;100.00;103159.72;5016194;28;20025;-53
2022/03/26 06:11:17;;;;;;;57.97;22.45;;;;;;;4.94;99.95;103168.28;5014991;28;20570;-53
2022/03/26 06:13:42;;;;;;;60.92;22.45;;;;;;;4.98;99.84;103162.78;5016694;28;20052;-53
2022/03/26 06:16:08;;;;;;;56.58;21.85;;;;;;;5.03;98.95;103159.94;5014571;28;20449;-69
2022/03/26 06:18:33;;;;;;;51.05;21.92;;;;;;;5.03;98.47;103168.72;5015145;28;20052;-53
2022/03/26 06:21:00;;;;;;;51.67;22.05;;;;;;;5.04;99.17;103169.59;5015882;28;20025;-52
2022/03/26 06:23:25;;;;;;;62.83;22.75;;;;;;;5.01;98.82;103167.09;5015742;28;20452;-54
2022/03/26 06:25:50;;;;;;;53.83;22.50;;;;;;;5.02;99.82;103166.16;5013744;28;20059;-53
2022/03/26 06:28:19;;;;;;;59.45;22.05;;;;;;;5.06;99.53;103181.00;4997996;28;20117;-53
2022/03/26 06:30:45;;;;;;;61.22;23.23;;;;;;;5.13;99.85;103176.28;5014248;28;20036;-53
2022/03/26 06:33:11;;;;;;;57.22;22.80;;;;;;;5.20;99.39;103173.28;5001128;28;20022;-53
2022/03/26 06:35:37;;;;;;;61.60;23.83;;;;;;;5.30;99.75;103181.69;5004988;28;20136;-54
2022/03/26 06:38:02;;;;;;;63.17;24.08;;;;;;;5.38;99.93;103182.22;5001749;28;20116;-53
2022/03/26 06:40:27;;;;;;;58.28;23.70;;;;;;;5.45;99.86;103177.50;4994650;28;20048;-53
2022/03/26 06:42:53;;;;;;;55.17;23.55;;;;;;;5.53;99.32;103185.97;4996050;28;20492;-54
2022/03/26 06:45:18;;;;;;;61.20;23.15;;;;;;;5.65;99.00;103184.53;5008698;28;20434;-54
2022/03/26 06:47:44;;;;;;;52.20;22.70;;;;;;;5.73;97.82;103185.00;4994921;28;20026;-53
2022/03/26 06:50:09;;;;;;;63.95;25.08;;;;;;;5.85;97.85;103188.03;5012717;28;20460;-54
2022/03/26 06:52:34;;;;;;;66.45;24.55;;;;;;;5.95;96.92;103179.56;4997327;28;20018;-54
2022/03/26 06:55:02;;;;;;;65.90;24.40;;;;;;;6.09;95.63;103186.03;4994902;28;20744;-53
2022/03/26 06:57:27;;;;;;;59.20;24.15;;;;;;;6.18;95.61;103188.25;5009795;28;20037;-53
2022/03/26 06:59:52;;;;;;;58.15;23.48;;;;;;;6.28;94.32;103184.22;5006799;28;20033;-53
2022/03/26 07:02:17;;;;;;;61.53;25.60;;;;;;;6.38;94.00;103192.56;5014319;28;20147;-53
2022/03/26 07:04:43;;;;;;;56.72;23.08;;;;;;;6.49;94.17;103192.03;5005078;28;20060;-55
2022/03/26 07:07:11;;;;;;;59.50;24.02;;;;;;;6.60;93.06;103197.69;5011723;28;20041;-54
2022/03/26 07:09:37;;;;;;;63.70;24.15;;;;;;;6.72;92.77;103196.19;5014134;28;20033;-54
2022/03/26 07:12:02;;;;;;;64.05;24.65;;;;;;;6.83;92.24;103195.66;4993210;28;20034;-53
2022/03/26 07:14:28;;;;;;;56.67;24.13;;;;;;;6.95;90.90;103200.31;4999087;28;20229;-52
2022/03/26 07:16:53;;;;;;;60.38;23.83;;;;;;;7.07;90.90;103202.34;5014761;28;20033;-54
2022/03/26 07:19:18;;;;;;;64.57;24.83;;;;;;;7.17;88.68;103201.88;5012566;28;20033;-53
2022/03/26 07:21:43;;;;;;;53.55;24.13;;;;;;;7.27;90.07;103201.28;5014722;28;20445;-54
2022/03/26 07:24:09;;;;;;;67.25;24.70;;;;;;;7.37;88.50;103199.00;5014552;28;20048;-53
2022/03/26 07:26:34;;;;;;;52.28;23.00;;;;;;;7.51;87.56;103192.94;5011632;28;20109;-53
2022/03/26 07:29:00;;;;;;;55.65;23.70;;;;;;;7.62;86.77;103195.88;5014379;28;20036;-54
2022/03/26 07:31:25;;;;;;;57.22;24.27;;;;;;;7.75;86.36;103209.34;5006122;28;20334;-54
2022/03/26 07:33:51;;;;;;;64.70;23.92;;;;;;;7.88;85.24;103209.56;5014066;28;20567;-54
2022/03/26 07:36:16;;;;;;;60.50;24.75;;;;;;;8.02;84.99;103203.47;5003987;28;20800;-54
2022/03/26 07:38:42;;;;;;;56.38;23.48;;;;;;;8.19;84.77;103214.00;5002458;28;20513;-54
2022/03/26 07:41:08;;;;;;;50.90;23.50;;;;;;;8.37;84.78;103211.25;5011937;28;20028;-54
2022/03/26 07:43:34;;;;;;;59.15;23.88;;;;;;;8.54;83.21;103211.16;5001370;28;20055;-54
2022/03/26 07:45:59;;;;;;;58.80;23.80;;;;;;;8.72;82.26;103213.69;4993019;28;20396;-53
2022/03/26 07:48:25;;;;;;;54.33;24.25;;;;;;;8.84;80.61;103206.78;4994607;28;20033;-54
2022/03/26 07:50:50;;;;;;;56.28;23.98;;;;;;;8.97;79.70;103210.41;5007347;28;20029;-55
2022/03/26 07:53:17;;;;;;;59.28;23.10;;;;;;;9.11;79.88;103206.91;5013964;28;20391;-50
2022/03/26 07:55:42;;;;;;;64.90;25.02;;;;;;;9.26;79.19;103210.47;5012408;28;20033;-54
2022/03/26 07:58:08;;;;;;;57.15;24.15;;;;;;;9.44;79.96;103219.16;5013753;28;20039;-54
2022/03/26 08:00:33;;;;;;;57.40;23.15;;;;;;;9.57;78.95;103212.06;5004101;28;20022;-53
2022/03/26 08:02:58;;;;;;;51.30;23.13;;;;;;;9.73;78.13;103219.13;5003547;28;20033;-54
2022/03/26 08:05:24;;;;;;;59.03;24.50;;;;;;;9.87;76.41;103211.09;5001151;28;20032;-54
2022/03/26 08:07:49;;;;;;;64.47;24.38;;;;;;;10.01;74.22;103219.09;5007018;28;20022;-54
2022/03/26 08:10:15;;;;;;;52.85;24.40;;;;;;;10.13;74.54;103219.22;5009401;28;20087;-54
2022/03/26 08:12:40;;;;;;;58.83;24.05;;;;;;;10.27;75.97;103222.72;4995729;28;20088;-53
2022/03/26 08:15:06;;;;;;;52.85;23.85;;;;;;;10.45;75.27;103223.38;4993658;28;20086;-54
2022/03/26 08:17:31;;;;;;;51.45;22.10;;;;;;;10.60;72.04;103225.97;5007136;28;20037;-54
2022/03/26 08:19:57;;;;;;;50.28;24.27;;;;;;;10.73;72.22;103226.84;5013426;28;20044;-54
2022/03/26 08:22:22;;;;;;;47.67;21.58;;;;;;;10.88;71.39;103234.78;5013772;28;20242;-54
2022/03/26 08:24:47;;;;;;;52.70;23.27;;;;;;;11.00;71.30;103240.16;5011142;28;20033;-54
2022/03/26 08:27:13;;;;;;;51.22;22.58;;;;;;;11.11;70.30;103243.91;4993554;28;20116;-54
2022/03/26 08:29:38;;;;;;;55.70;23.50;;;;;;;11.28;71.71;103253.44;4992713;28;20030;-55
2022/03/26 08:32:05;;;;;;;63.63;23.85;;;;;;;11.41;71.45;103248.13;4992398;28;20315;-54
2022/03/26 08:34:31;;;;;;;61.03;24.30;;;;;;;11.49;69.57;103254.63;5010200;28;20033;-54
2022/03/26 08:36:56;;;;;;;54.42;24.58;;;;;;;11.55;69.66;103256.84;5003362;28;20049;-53
2022/03/26 08:39:22;;;;;;;56.53;24.17;;;;;;;11.64;70.07;103257.19;4995328;28;20116;-54
2022/03/26 08:41:47;;;;;;;76.97;25.55;;;;;;;11.73;69.58;103254.72;5012288;28;20021;-54
2022/03/26 08:44:12;;;;;;;63.88;24.95;;;;;;;11.89;68.81;103258.97;5008895;28;20052;-55
2022/03/26 08:46:38;;;;;;;60.13;23.60;;;;;;;12.00;67.96;103255.53;5011751;28;20044;-54
2022/03/26 08:49:03;;;;;;;55.60;23.95;;;;;;;12.10;66.71;103252.09;5000861;28;20037;-53
2022/03/26 08:51:29;;;;;;;55.35;22.27;;;;;;;12.30;65.56;103266.72;4992138;28;20244;-54
2022/03/26 08:53:54;;;;;;;69.63;26.52;;;;;;;12.41;66.68;103249.00;4993792;28;20038;-54
2022/03/26 08:56:19;;;;;;;75.28;28.42;;;;;;;12.47;66.39;103264.59;4997456;28;20036;-53
2022/03/26 08:58:45;;;;;;;74.25;28.80;;;;;;;12.54;67.43;103260.47;5013182;28;20609;-53
2022/03/26 09:01:11;;;;;;;88.68;35.38;;;;;;;12.63;65.91;103259.81;5012100;28;20060;-53
2022/03/26 09:03:37;;;;;;;56.92;26.92;;;;;;;12.71;64.72;103255.69;5008284;28;20465;-55
2022/03/26 09:06:06;;;;;;;65.45;26.10;;;;;;;12.82;64.67;103248.53;5000534;28;20302;-52
2022/03/26 09:08:32;;;;;;;69.20;26.88;;;;;;;13.01;64.94;103260.53;4999113;28;20548;-54
2022/03/26 09:10:57;;;;;;;64.30;27.10;;;;;;;13.17;64.94;103255.72;5006046;28;20206;-54
2022/03/26 09:13:24;;;;;;;54.25;23.30;;;;;;;13.32;61.84;103260.88;5001945;28;20599;-54
2022/03/26 09:15:50;;;;;;;54.50;22.73;;;;;;;13.37;60.63;103251.50;5011000;28;20307;-54
2022/03/26 09:18:15;;;;;;;54.80;23.90;;;;;;;13.58;61.46;103262.38;5003731;28;20215;-54
2022/03/26 09:20:40;;;;;;;53.60;23.65;;;;;;;13.65;59.44;103253.84;4992766;28;20140;-54
2022/03/26 09:23:06;;;;;;;56.05;24.02;;;;;;;13.73;58.53;103262.13;4999890;28;20083;-54
2022/03/26 09:25:33;;;;;;;58.10;22.20;;;;;;;13.85;58.47;103265.66;4991361;28;20136;-53
2022/03/26 09:27:58;;;;;;;48.13;21.50;;;;;;;14.00;59.75;103261.72;4993075;28;20034;-55
2022/03/26 09:30:24;;;;;;;53.00;22.23;;;;;;;14.11;59.26;103264.41;4992888;28;20460;-54
2022/03/26 09:32:49;;;;;;;47.40;22.38;;;;;;;14.30;58.25;103262.91;4993481;28;20026;-52
2022/03/26 09:35:15;;;;;;;47.05;20.50;;;;;;;14.46;58.40;103266.03;5011804;28;20174;-54
2022/03/26 09:37:42;;;;;;;47.75;20.50;;;;;;;14.67;57.73;103265.25;5012717;28;20104;-54
2022/03/26 09:40:09;;;;;;;47.83;19.25;;;;;;;14.79;55.68;103266.91;5001588;28;20029;-54
2022/03/26 09:42:39;;;;;;;47.40;20.00;;;;;;;14.94;56.33;103258.53;5009737;28;20357;-54
2022/03/26 09:45:06;;;;;;;43.90;19.67;;;;;;;15.02;57.84;103251.50;5011801;28;20034;-54
2022/03/26 09:47:32;;;;;;;46.97;19.33;;;;;;;15.25;56.56;103254.88;5014022;28;20185;-53
2022/03/26 09:49:58;;;;;;;39.40;18.77;;;;;;;15.43;56.01;103257.84;5005208;28;20049;-54
2022/03/26 09:52:24;;;;;;;42.03;18.83;;;;;;;15.54;54.45;103261.44;4999867;28;20738;-55
2022/03/26 09:54:50;;;;;;;46.30;15.43;;;;;;;15.67;53.00;103260.22;4996871;28;20299;-54
2022/03/26 09:57:15;;;;;;;34.80;15.65;;;;;;;15.73;52.57;103257.97;4996603;28;20453;-55
2022/03/26 09:59:40;;;;;;;35.67;15.32;;;;;;;15.81;50.26;103253.63;5007285;28;20029;-54
2022/03/26 10:02:05;;;;;;;34.75;15.25;;;;;;;16.01;49.42;103251.84;5032651;28;20078;-55
2022/03/26 10:04:38;;;;;;;32.47;15.25;;;;;;;16.21;49.48;103255.44;5015608;28;20037;-54
2022/03/26 10:07:04;;;;;;;37.33;16.95;;;;;;;16.30;50.04;103252.91;4994880;28;20034;-54
2022/03/26 10:09:46;;;;;;;41.28;18.17;;;;;;;16.45;50.27;103261.44;4995952;28;20588;-54
2022/03/26 10:12:18;;;;;;;;;;;;;;;16.55;49.26;103248.81;5014932;28;20068;-54
2022/03/26 10:14:48;;;;;;;39.83;18.58;;;;;;;16.56;47.46;103259.47;5014262;28;19916;-53
2022/03/26 10:17:33;;;;;;;47.92;18.75;;;;;;;16.55;48.43;103244.25;5015588;28;20074;-51
2022/03/26 10:20:05;;;;;;;42.17;18.60;;;;;;;16.62;47.38;103247.25;5015102;28;20528;-54
2022/03/26 10:22:38;;;;;;;44.22;19.83;;;;;;;16.64;46.83;103255.19;5014279;28;20041;-55
2022/03/26 10:25:15;;;;;;;50.03;20.40;;;;;;;16.69;48.95;103242.97;5011065;28;20034;-54
2022/03/26 10:27:43;;;;;;;49.53;21.15;;;;;;;16.75;47.68;103255.03;5015815;28;20834;-54
2022/03/26 10:30:11;;;;;;;45.88;21.17;;;;;;;16.84;47.57;103248.81;5015530;28;20030;-55
2022/03/26 10:32:50;;;;;;;52.72;22.30;;;;;;;16.87;47.86;103244.97;5015539;28;20129;-55
2022/03/26 10:35:17;;;;;;;47.60;21.35;;;;;;;17.04;49.25;103243.38;5016502;28;20640;-54
2022/03/26 10:37:44;;;;;;;52.33;21.58;;;;;;;17.24;49.71;103238.78;5017893;28;20021;-55
2022/03/26 10:40:35;;;;;;;51.13;22.08;;;;;;;17.40;49.77;103241.72;5017631;28;20565;-55
2022/03/26 10:43:02;;;;;;;41.38;20.50;;;;;;;17.46;48.27;103232.16;5014312;28;20041;-55
2022/03/26 10:45:29;;;;;;;35.85;16.60;;;;;;;17.59;48.94;103232.69;5012807;28;20393;-54
2022/03/26 10:47:56;;;;;;;35.28;17.50;;;;;;;17.71;49.38;103236.88;5012713;28;20045;-54
2022/03/26 10:50:23;;;;;;;34.55;16.85;;;;;;;17.93;49.22;103229.41;5018546;28;20088;-54
2022/03/26 10:52:49;;;;;;;33.90;14.90;;;;;;;17.92;48.05;103216.88;5018440;28;20021;-54
2022/03/26 10:55:16;;;;;;;32.05;14.95;;;;;;;18.00;48.35;103230.50;5016084;28;20120;-55
2022/03/26 10:57:45;;;;;;;27.52;14.65;;;;;;;17.98;49.92;103228.97;5014649;28;20041;-55
2022/03/26 11:00:12;;;;;;;31.65;16.10;;;;;;;18.11;48.36;103226.75;5013918;28;20049;-54
2022/03/26 11:02:37;;;;;;;26.63;14.02;;;;;;;18.24;48.73;103232.63;5012547;28;20041;-55
2022/03/26 11:05:02;;;;;;;24.55;12.10;;;;;;;18.33;48.07;103230.84;5017664;28;20037;-55
2022/03/26 11:07:28;;;;;;;24.33;11.27;;;;;;;18.31;47.77;103230.13;5015399;28;20037;-55
2022/03/26 11:09:56;;;;;;;24.85;12.25;;;;;;;18.37;48.57;103228.69;5015836;28;20005;-55